sensor_id;sensor_type;location;lat;lon;timestamp;pressure;altitude;pressure_sealevel;temperature;humidity
12358;BME280;6243;51.244;6.774;2022-09-09T00:00:12;154900.72;;;29.35;46.26
12358;BME280;6243;51.244;6.774;2022-09-09T00:02:38;154828.53;;;29.07;47.23
12358;BME280;6243;51.244;6.774;2022-09-09T00:05:15;154706.13;;;28.59;48.16
12358;BME280;6243;51.244;6.774;2022-09-09T00:07:46;154726.72;;;28.67;48.01
12358;BME280;6243;51.244;6.774;2022-09-09T00:10:18;154529.56;;;27.90;49.35
12358;BME280;6243;51.244;6.774;2022-09-09T00:12:53;154550.16;;;27.98;49.36
12358;BME280;6243;51.244;6.774;2022-09-09T00:15:24;154676.44;;;28.47;48.35
12358;BME280;6243;51.244;6.774;2022-09-09T00:17:54;154480.63;;;27.71;49.81
12358;BME280;6243;51.244;6.774;2022-09-09T00:20:26;154465.19;;;27.65;50.36
12358;BME280;6243;51.244;6.774;2022-09-09T00:22:57;154510.25;;;27.82;49.67
12358;BME280;6243;51.244;6.774;2022-09-09T00:25:31;154467.75;;;27.66;49.57
12358;BME280;6243;51.244;6.774;2022-09-09T00:27:58;154609.44;;;28.21;48.77
12358;BME280;6243;51.244;6.774;2022-09-09T00:30:26;154485.78;;;27.73;49.63
12358;BME280;6243;51.244;6.774;2022-09-09T00:32:55;154386.59;;;27.34;50.56
12358;BME280;6243;51.244;6.774;2022-09-09T00:35:25;154689.28;;;28.52;47.94
12358;BME280;6243;51.244;6.774;2022-09-09T00:37:55;154609.44;;;28.21;48.58
12358;BME280;6243;51.244;6.774;2022-09-09T00:40:30;154448.47;;;27.58;49.77
12358;BME280;6243;51.244;6.774;2022-09-09T00:43:14;154319.69;;;27.08;51.49
12358;BME280;6243;51.244;6.774;2022-09-09T00:46:05;154523.13;;;27.87;49.69
12358;BME280;6243;51.244;6.774;2022-09-09T00:48:42;154371.16;;;27.28;51.15
12358;BME280;6243;51.244;6.774;2022-09-09T00:51:15;154404.69;;;27.41;50.57
12358;BME280;6243;51.244;6.774;2022-09-09T00:53:59;154442.03;;;27.56;50.50
12358;BME280;6243;51.244;6.774;2022-09-09T00:56:34;154604.31;;;28.19;48.83
12358;BME280;6243;51.244;6.774;2022-09-09T00:59:08;154609.44;;;28.21;48.78
12358;BME280;6243;51.244;6.774;2022-09-09T01:01:40;154624.88;;;28.27;48.96
12358;BME280;6243;51.244;6.774;2022-09-09T01:04:12;154728.00;;;28.67;48.66
12358;BME280;6243;51.244;6.774;2022-09-09T01:06:38;154511.53;;;27.83;49.69
12358;BME280;6243;51.244;6.774;2022-09-09T01:09:09;154460.06;;;27.63;50.43
12358;BME280;6243;51.244;6.774;2022-09-09T01:11:43;154261.78;;;26.85;51.86
12358;BME280;6243;51.244;6.774;2022-09-09T01:14:24;154348.00;;;27.19;51.86
12358;BME280;6243;51.244;6.774;2022-09-09T01:16:54;154499.94;;;27.78;50.15
12358;BME280;6243;51.244;6.774;2022-09-09T01:19:29;154475.47;;;27.69;49.78
12358;BME280;6243;51.244;6.774;2022-09-09T01:22:04;154261.78;;;26.85;52.52
12358;BME280;6243;51.244;6.774;2022-09-09T01:24:38;154636.47;;;28.32;48.91
12358;BME280;6243;51.244;6.774;2022-09-09T01:27:09;154293.94;;;26.98;52.34
12358;BME280;6243;51.244;6.774;2022-09-09T01:29:35;154532.13;;;27.91;50.26
12358;BME280;6243;51.244;6.774;2022-09-09T01:32:35;154655.81;;;28.39;48.62
12358;BME280;6243;51.244;6.774;2022-09-09T01:34:48;154381.44;;;27.32;50.80
12358;BME280;6243;51.244;6.774;2022-09-09T01:37:15;154649.38;;;28.37;48.72
12358;BME280;6243;51.244;6.774;2022-09-09T01:39:43;154492.22;;;27.75;49.62
12358;BME280;6243;51.244;6.774;2022-09-09T01:42:13;154485.78;;;27.73;49.95
12358;BME280;6243;51.244;6.774;2022-09-09T01:44:40;154490.91;;;27.75;50.33
12358;BME280;6243;51.244;6.774;2022-09-09T01:47:06;154462.59;;;27.64;50.57
12358;BME280;6243;51.244;6.774;2022-09-09T01:49:32;154268.22;;;26.88;51.91
12358;BME280;6243;51.244;6.774;2022-09-09T01:51:58;154210.28;;;26.65;52.34
12358;BME280;6243;51.244;6.774;2022-09-09T01:54:26;154520.53;;;27.86;49.97
12358;BME280;6243;51.244;6.774;2022-09-09T01:56:59;154499.94;;;27.78;50.04
12358;BME280;6243;51.244;6.774;2022-09-09T01:59:45;154548.84;;;27.97;49.49
12358;BME280;6243;51.244;6.774;2022-09-09T02:02:17;154284.97;;;26.94;52.60
12358;BME280;6243;51.244;6.774;2022-09-09T02:04:44;154457.44;;;27.62;50.24
12358;BME280;6243;51.244;6.774;2022-09-09T02:07:21;154471.63;;;27.67;50.34
12358;BME280;6243;51.244;6.774;2022-09-09T02:09:57;154677.69;;;28.48;48.43
12358;BME280;6243;51.244;6.774;2022-09-09T02:12:26;154514.09;;;27.84;49.22
12358;BME280;6243;51.244;6.774;2022-09-09T02:14:56;154458.75;;;27.62;50.57
12358;BME280;6243;51.244;6.774;2022-09-09T02:17:28;154612.03;;;28.22;49.27
12358;BME280;6243;51.244;6.774;2022-09-09T02:20:03;154597.84;;;28.17;48.94
12358;BME280;6243;51.244;6.774;2022-09-09T02:22:31;154357.00;;;27.22;51.33
12358;BME280;6243;51.244;6.774;2022-09-09T02:24:59;154403.38;;;27.40;50.57
12358;BME280;6243;51.244;6.774;2022-09-09T02:27:25;154584.97;;;28.11;48.94
12358;BME280;6243;51.244;6.774;2022-09-09T02:29:52;154452.31;;;27.60;50.15
12358;BME280;6243;51.244;6.774;2022-09-09T02:32:22;154534.72;;;27.92;49.21
12358;BME280;6243;51.244;6.774;2022-09-09T02:34:51;154466.50;;;27.65;50.13
12358;BME280;6243;51.244;6.774;2022-09-09T02:37:18;154435.56;;;27.53;50.01
12358;BME280;6243;51.244;6.774;2022-09-09T02:39:46;154492.22;;;27.75;49.77
12358;BME280;6243;51.244;6.774;2022-09-09T02:42:12;154416.25;;;27.46;50.44
12358;BME280;6243;51.244;6.774;2022-09-09T02:44:37;154548.84;;;27.97;49.45
12358;BME280;6243;51.244;6.774;2022-09-09T02:47:13;154533.41;;;27.91;49.23
12358;BME280;6243;51.244;6.774;2022-09-09T02:49:54;154712.53;;;28.61;47.48
12358;BME280;6243;51.244;6.774;2022-09-09T02:52:29;154434.28;;;27.53;50.41
12358;BME280;6243;51.244;6.774;2022-09-09T02:55:04;154215.44;;;26.67;52.37
12358;BME280;6243;51.244;6.774;2022-09-09T02:57:33;154488.38;;;27.74;50.09
12358;BME280;6243;51.244;6.774;2022-09-09T03:00:00;154552.81;;;27.99;49.40
12358;BME280;6243;51.244;6.774;2022-09-09T03:02:25;154590.13;;;28.13;49.24
12358;BME280;6243;51.244;6.774;2022-09-09T03:04:52;154654.50;;;28.39;48.56
12358;BME280;6243;51.244;6.774;2022-09-09T03:07:18;154498.66;;;27.78;49.76
12358;BME280;6243;51.244;6.774;2022-09-09T03:09:44;154461.34;;;27.63;50.63
12358;BME280;6243;51.244;6.774;2022-09-09T03:12:10;154694.47;;;28.54;48.23
12358;BME280;6243;51.244;6.774;2022-09-09T03:14:35;154557.94;;;28.01;49.09
12358;BME280;6243;51.244;6.774;2022-09-09T03:17:01;154391.75;;;27.36;50.23
12358;BME280;6243;51.244;6.774;2022-09-09T03:19:27;154624.88;;;28.27;47.99
12358;BME280;6243;51.244;6.774;2022-09-09T03:21:54;154360.88;;;27.24;50.55
12358;BME280;6243;51.244;6.774;2022-09-09T03:24:19;154447.16;;;27.58;49.64
12358;BME280;6243;51.244;6.774;2022-09-09T03:26:45;154619.72;;;28.25;48.02
12358;BME280;6243;51.244;6.774;2022-09-09T03:29:11;154255.34;;;26.83;51.42
12358;BME280;6243;51.244;6.774;2022-09-09T03:31:37;154359.59;;;27.23;50.60
12358;BME280;6243;51.244;6.774;2022-09-09T03:34:02;154344.16;;;27.17;50.89
12358;BME280;6243;51.244;6.774;2022-09-09T03:36:28;154362.13;;;27.24;50.54
12358;BME280;6243;51.244;6.774;2022-09-09T03:38:55;154224.41;;;26.70;51.85
12358;BME280;6243;51.244;6.774;2022-09-09T03:41:21;154403.38;;;27.40;49.53
12358;BME280;6243;51.244;6.774;2022-09-09T03:43:47;154411.13;;;27.43;49.91
12358;BME280;6243;51.244;6.774;2022-09-09T03:46:12;154229.56;;;26.72;51.42
12358;BME280;6243;51.244;6.774;2022-09-09T03:48:38;154335.13;;;27.14;50.57
12358;BME280;6243;51.244;6.774;2022-09-09T03:51:04;154416.25;;;27.46;49.86
12358;BME280;6243;51.244;6.774;2022-09-09T03:53:29;154691.88;;;28.53;47.14
12358;BME280;6243;51.244;6.774;2022-09-09T03:55:57;154519.28;;;27.86;48.50
12358;BME280;6243;51.244;6.774;2022-09-09T03:58:23;154354.44;;;27.21;50.33
12358;BME280;6243;51.244;6.774;2022-09-09T04:00:53;154362.13;;;27.24;49.84
12358;BME280;6243;51.244;6.774;2022-09-09T04:03:19;154333.81;;;27.13;49.97
12358;BME280;6243;51.244;6.774;2022-09-09T04:05:44;154426.53;;;27.50;48.75
12358;BME280;6243;51.244;6.774;2022-09-09T04:08:10;154223.13;;;26.70;51.01
12358;BME280;6243;51.244;6.774;2022-09-09T04:10:35;154470.34;;;27.67;49.10
12358;BME280;6243;51.244;6.774;2022-09-09T04:13:04;154498.66;;;27.78;48.28
12358;BME280;6243;51.244;6.774;2022-09-09T04:15:30;154265.63;;;26.87;50.86
12358;BME280;6243;51.244;6.774;2022-09-09T04:17:56;154526.97;;;27.89;48.16
12358;BME280;6243;51.244;6.774;2022-09-09T04:20:21;154197.41;;;26.60;51.55
12358;BME280;6243;51.244;6.774;2022-09-09T04:22:47;154358.28;;;27.23;50.01
12358;BME280;6243;51.244;6.774;2022-09-09T04:25:13;154184.53;;;26.55;52.05
12358;BME280;6243;51.244;6.774;2022-09-09T04:27:38;154153.66;;;26.43;51.97
12358;BME280;6243;51.244;6.774;2022-09-09T04:30:06;154447.16;;;27.58;49.39
12358;BME280;6243;51.244;6.774;2022-09-09T04:32:33;154480.63;;;27.71;49.20
12358;BME280;6243;51.244;6.774;2022-09-09T04:34:58;154202.56;;;26.62;51.28
12358;BME280;6243;51.244;6.774;2022-09-09T04:37:24;154405.97;;;27.41;49.71
12358;BME280;6243;51.244;6.774;2022-09-09T04:39:49;154578.53;;;28.09;48.07
12358;BME280;6243;51.244;6.774;2022-09-09T04:42:15;154232.16;;;26.73;50.64
12358;BME280;6243;51.244;6.774;2022-09-09T04:44:40;154256.66;;;26.83;51.20
12358;BME280;6243;51.244;6.774;2022-09-09T04:47:07;154335.13;;;27.14;51.00
12358;BME280;6243;51.244;6.774;2022-09-09T04:49:33;154142.06;;;26.38;52.16
12358;BME280;6243;51.244;6.774;2022-09-09T04:51:58;154498.66;;;27.78;48.64
12358;BME280;6243;51.244;6.774;2022-09-09T04:54:24;154284.97;;;26.94;51.50
12358;BME280;6243;51.244;6.774;2022-09-09T04:56:49;154305.53;;;27.02;50.70
12358;BME280;6243;51.244;6.774;2022-09-09T04:59:15;154328.69;;;27.11;50.99
12358;BME280;6243;51.244;6.774;2022-09-09T05:01:40;154336.41;;;27.14;50.40
12358;BME280;6243;51.244;6.774;2022-09-09T05:04:07;154376.31;;;27.30;50.65
12358;BME280;6243;51.244;6.774;2022-09-09T05:06:33;154533.41;;;27.91;49.00
12358;BME280;6243;51.244;6.774;2022-09-09T05:08:59;154712.53;;;28.61;47.32
12358;BME280;6243;51.244;6.774;2022-09-09T05:11:25;154507.69;;;27.81;49.33
12358;BME280;6243;51.244;6.774;2022-09-09T05:13:51;154697.03;;;28.55;47.58
12358;BME280;6243;51.244;6.774;2022-09-09T05:16:18;154493.50;;;27.76;49.29
12358;BME280;6243;51.244;6.774;2022-09-09T05:18:44;154734.47;;;28.70;47.21
12358;BME280;6243;51.244;6.774;2022-09-09T05:21:11;154655.81;;;28.39;47.67
12358;BME280;6243;51.244;6.774;2022-09-09T05:23:37;154317.09;;;27.07;50.10
12358;BME280;6243;51.244;6.774;2022-09-09T05:26:04;154384.06;;;27.33;50.37
12358;BME280;6243;51.244;6.774;2022-09-09T05:28:30;154467.75;;;27.66;49.66
12358;BME280;6243;51.244;6.774;2022-09-09T05:30:57;154478.06;;;27.70;49.23
12358;BME280;6243;51.244;6.774;2022-09-09T05:33:23;154333.81;;;27.13;50.61
12358;BME280;6243;51.244;6.774;2022-09-09T05:35:55;154566.94;;;28.04;48.73
12358;BME280;6243;51.244;6.774;2022-09-09T05:38:22;154215.44;;;26.67;51.76
12358;BME280;6243;51.244;6.774;2022-09-09T05:40:48;154238.63;;;26.76;51.94
12358;BME280;6243;51.244;6.774;2022-09-09T05:43:13;154223.13;;;26.70;52.13
12358;BME280;6243;51.244;6.774;2022-09-09T05:45:39;154237.34;;;26.76;51.72
12358;BME280;6243;51.244;6.774;2022-09-09T05:48:04;154519.28;;;27.86;48.82
12358;BME280;6243;51.244;6.774;2022-09-09T05:50:30;154560.53;;;28.02;48.72
12358;BME280;6243;51.244;6.774;2022-09-09T05:52:56;154515.38;;;27.84;49.53
12358;BME280;6243;51.244;6.774;2022-09-09T05:55:23;154429.13;;;27.51;50.00
12358;BME280;6243;51.244;6.774;2022-09-09T05:57:48;154399.53;;;27.39;50.57
12358;BME280;6243;51.244;6.774;2022-09-09T06:00:14;154703.47;;;28.58;47.75
12358;BME280;6243;51.244;6.774;2022-09-09T06:02:40;154299.09;;;27.00;50.83
12358;BME280;6243;51.244;6.774;2022-09-09T06:05:06;154413.72;;;27.45;49.57
12358;BME280;6243;51.244;6.774;2022-09-09T06:07:32;154466.50;;;27.65;49.74
12358;BME280;6243;51.244;6.774;2022-09-09T06:09:57;154418.84;;;27.47;50.22
12358;BME280;6243;51.244;6.774;2022-09-09T06:12:25;154309.41;;;27.04;51.18
12358;BME280;6243;51.244;6.774;2022-09-09T06:14:50;154382.75;;;27.32;50.74
12358;BME280;6243;51.244;6.774;2022-09-09T06:17:16;154498.66;;;27.78;50.03
12358;BME280;6243;51.244;6.774;2022-09-09T06:19:41;154657.09;;;28.40;48.19
12358;BME280;6243;51.244;6.774;2022-09-09T06:22:07;154516.69;;;27.85;49.70
12358;BME280;6243;51.244;6.774;2022-09-09T06:24:33;154452.31;;;27.60;50.39
12358;BME280;6243;51.244;6.774;2022-09-09T06:26:58;154448.47;;;27.58;49.97
12358;BME280;6243;51.244;6.774;2022-09-09T06:29:25;153962.00;;;25.68;53.66
12358;BME280;6243;51.244;6.774;2022-09-09T06:31:50;154623.63;;;28.27;48.67
12358;BME280;6243;51.244;6.774;2022-09-09T06:34:16;154863.38;;;29.20;46.66
12358;BME280;6243;51.244;6.774;2022-09-09T06:36:42;154311.97;;;27.05;51.75
12358;BME280;6243;51.244;6.774;2022-09-09T06:39:07;154478.06;;;27.70;49.00
12358;BME280;6243;51.244;6.774;2022-09-09T06:41:33;154554.09;;;27.99;50.03
12358;BME280;6243;51.244;6.774;2022-09-09T06:43:58;154633.94;;;28.31;49.42
12358;BME280;6243;51.244;6.774;2022-09-09T06:46:26;154693.19;;;28.54;48.68
12358;BME280;6243;51.244;6.774;2022-09-09T06:48:52;154849.13;;;29.15;46.65
12358;BME280;6243;51.244;6.774;2022-09-09T06:51:20;154738.31;;;28.71;47.75
12358;BME280;6243;51.244;6.774;2022-09-09T06:53:46;154980.66;;;29.66;46.55
12358;BME280;6243;51.244;6.774;2022-09-09T06:56:20;154682.88;;;28.50;47.18
12358;BME280;6243;51.244;6.774;2022-09-09T06:58:46;154594.00;;;28.15;48.21
12358;BME280;6243;51.244;6.774;2022-09-09T07:01:14;154614.59;;;28.23;46.79
12358;BME280;6243;51.244;6.774;2022-09-09T07:03:42;154938.09;;;29.49;45.18
12358;BME280;6243;51.244;6.774;2022-09-09T07:06:09;154824.63;;;29.05;44.80
12358;BME280;6243;51.244;6.774;2022-09-09T07:08:38;155094.13;;;30.10;42.79
12358;BME280;6243;51.244;6.774;2022-09-09T07:11:05;155233.47;;;30.65;42.02
12358;BME280;6243;51.244;6.774;2022-09-09T07:13:32;155086.38;;;30.07;42.75
12358;BME280;6243;51.244;6.774;2022-09-09T07:16:03;155058.03;;;29.96;42.95
12358;BME280;6243;51.244;6.774;2022-09-09T07:18:29;154664.84;;;28.43;44.98
12358;BME280;6243;51.244;6.774;2022-09-09T07:20:56;154641.66;;;28.34;45.26
12358;BME280;6243;51.244;6.774;2022-09-09T07:23:21;154948.41;;;29.54;43.17
12358;BME280;6243;51.244;6.774;2022-09-09T07:25:47;154980.66;;;29.66;42.97
12358;BME280;6243;51.244;6.774;2022-09-09T07:28:13;154684.13;;;28.50;45.09
12358;BME280;6243;51.244;6.774;2022-09-09T07:30:39;154794.97;;;28.94;44.00
12358;BME280;6243;51.244;6.774;2022-09-09T07:33:04;154980.66;;;29.66;42.68
12358;BME280;6243;51.244;6.774;2022-09-09T07:35:30;155090.28;;;30.09;42.25
12358;BME280;6243;51.244;6.774;2022-09-09T07:37:57;154811.72;;;29.00;43.63
12358;BME280;6243;51.244;6.774;2022-09-09T07:40:23;154984.50;;;29.68;42.02
12358;BME280;6243;51.244;6.774;2022-09-09T07:42:48;155099.28;;;30.12;41.54
12358;BME280;6243;51.244;6.774;2022-09-09T07:45:14;155259.28;;;30.75;40.57
12358;BME280;6243;51.244;6.774;2022-09-09T07:47:40;154921.34;;;29.43;42.48
12358;BME280;6243;51.244;6.774;2022-09-09T07:50:06;155058.03;;;29.96;41.51
12358;BME280;6243;51.244;6.774;2022-09-09T07:52:33;154635.22;;;28.31;43.98
12358;BME280;6243;51.244;6.774;2022-09-09T07:55:01;154685.44;;;28.51;43.34
12358;BME280;6243;51.244;6.774;2022-09-09T07:57:26;154673.84;;;28.46;43.47
12358;BME280;6243;51.244;6.774;2022-09-09T07:59:52;155019.38;;;29.81;41.24
12358;BME280;6243;51.244;6.774;2022-09-09T08:02:18;154891.72;;;29.31;42.36
12358;BME280;6243;51.244;6.774;2022-09-09T08:04:44;155198.63;;;30.51;39.24
12358;BME280;6243;51.244;6.774;2022-09-09T08:07:10;155236.06;;;30.66;38.53
12358;BME280;6243;51.244;6.774;2022-09-09T08:09:35;154898.16;;;29.34;41.66
12358;BME280;6243;51.244;6.774;2022-09-09T08:12:03;154818.16;;;29.03;41.07
12358;BME280;6243;51.244;6.774;2022-09-09T08:14:28;154999.97;;;29.74;39.85
12358;BME280;6243;51.244;6.774;2022-09-09T08:16:54;154742.16;;;28.73;41.54
12358;BME280;6243;51.244;6.774;2022-09-09T08:19:20;155090.28;;;30.09;40.11
12358;BME280;6243;51.244;6.774;2022-09-09T08:21:45;155194.78;;;30.50;38.80
12358;BME280;6243;51.244;6.774;2022-09-09T08:24:12;155073.53;;;30.02;38.70
12358;BME280;6243;51.244;6.774;2022-09-09T08:26:39;155046.41;;;29.92;39.63
12358;BME280;6243;51.244;6.774;2022-09-09T08:29:07;154935.50;;;29.48;40.31
12358;BME280;6243;51.244;6.774;2022-09-09T08:31:35;155058.03;;;29.96;39.23
12358;BME280;6243;51.244;6.774;2022-09-09T08:34:01;155176.72;;;30.43;38.93
12358;BME280;6243;51.244;6.774;2022-09-09T08:36:29;154565.69;;;28.04;42.81
12358;BME280;6243;51.244;6.774;2022-09-09T08:38:56;154820.78;;;29.04;41.39
12358;BME280;6243;51.244;6.774;2022-09-09T08:41:32;154758.94;;;28.79;40.85
12358;BME280;6243;51.244;6.774;2022-09-09T08:44:03;154876.22;;;29.25;40.89
12358;BME280;6243;51.244;6.774;2022-09-09T08:46:38;155305.78;;;30.93;38.02
12358;BME280;6243;51.244;6.774;2022-09-09T08:49:29;154978.06;;;29.65;39.03
12358;BME280;6243;51.244;6.774;2022-09-09T08:52:01;154926.50;;;29.45;39.61
12358;BME280;6243;51.244;6.774;2022-09-09T08:54:33;155016.75;;;29.80;38.96
12358;BME280;6243;51.244;6.774;2022-09-09T08:56:59;155039.97;;;29.89;39.44
12358;BME280;6243;51.244;6.774;2022-09-09T08:59:25;155330.28;;;31.03;37.99
12358;BME280;6243;51.244;6.774;2022-09-09T09:01:57;155145.72;;;30.31;38.02
12358;BME280;6243;51.244;6.774;2022-09-09T09:04:44;155331.59;;;31.03;37.16
12358;BME280;6243;51.244;6.774;2022-09-09T09:07:21;155175.44;;;30.42;38.80
12358;BME280;6243;51.244;6.774;2022-09-09T09:09:56;155109.59;;;30.16;38.80
12358;BME280;6243;51.244;6.774;2022-09-09T09:12:24;155354.81;;;31.12;37.28
12358;BME280;6243;51.244;6.774;2022-09-09T09:14:51;155108.34;;;30.16;38.12
12358;BME280;6243;51.244;6.774;2022-09-09T09:17:20;155227.00;;;30.62;37.44
12358;BME280;6243;51.244;6.774;2022-09-09T09:19:47;155077.38;;;30.04;38.45
12358;BME280;6243;51.244;6.774;2022-09-09T09:22:18;155277.34;;;30.82;37.96
12358;BME280;6243;51.244;6.774;2022-09-09T09:24:51;155050.31;;;29.93;39.41
12358;BME280;6243;51.244;6.774;2022-09-09T09:27:24;155098.00;;;30.12;38.78
12358;BME280;6243;51.244;6.774;2022-09-09T09:29:51;155154.81;;;30.34;38.57
12358;BME280;6243;51.244;6.774;2022-09-09T09:32:21;155138.00;;;30.28;38.20
12358;BME280;6243;51.244;6.774;2022-09-09T09:34:49;155105.75;;;30.15;37.54
12358;BME280;6243;51.244;6.774;2022-09-09T09:37:17;155067.06;;;30.00;38.02
12358;BME280;6243;51.244;6.774;2022-09-09T09:39:47;155003.91;;;29.75;37.42
12358;BME280;6243;51.244;6.774;2022-09-09T09:42:15;155206.41;;;30.54;36.22
12358;BME280;6243;51.244;6.774;2022-09-09T09:44:41;155492.94;;;31.66;35.71
12358;BME280;6243;51.244;6.774;2022-09-09T09:47:10;155486.47;;;31.64;35.61
12358;BME280;6243;51.244;6.774;2022-09-09T09:49:38;155711.25;;;32.51;34.84
12358;BME280;6243;51.244;6.774;2022-09-09T09:52:04;155765.44;;;32.72;34.01
12358;BME280;6243;51.244;6.774;2022-09-09T09:54:33;155912.78;;;33.30;33.47
12358;BME280;6243;51.244;6.774;2022-09-09T09:57:08;155783.53;;;32.79;34.13
12358;BME280;6243;51.244;6.774;2022-09-09T09:59:35;155791.31;;;32.82;33.67
12358;BME280;6243;51.244;6.774;2022-09-09T10:02:15;155383.19;;;31.23;34.76
12358;BME280;6243;51.244;6.774;2022-09-09T10:04:42;155556.19;;;31.91;33.51
12358;BME280;6243;51.244;6.774;2022-09-09T10:07:11;155431.00;;;31.42;34.59
12358;BME280;6243;51.244;6.774;2022-09-09T10:09:36;155677.56;;;32.38;33.38
12358;BME280;6243;51.244;6.774;2022-09-09T10:12:07;155343.22;;;31.08;35.72
12358;BME280;6243;51.244;6.774;2022-09-09T10:14:40;155357.38;;;31.13;35.25
12358;BME280;6243;51.244;6.774;2022-09-09T10:17:17;155787.44;;;32.81;33.59
12358;BME280;6243;51.244;6.774;2022-09-09T10:19:57;155629.84;;;32.19;34.10
12358;BME280;6243;51.244;6.774;2022-09-09T10:22:27;155598.84;;;32.07;34.14
12358;BME280;6243;51.244;6.774;2022-09-09T10:25:29;155108.34;;;30.16;36.76
12358;BME280;6243;51.244;6.774;2022-09-09T10:28:12;155575.59;;;31.98;34.63
12358;BME280;6243;51.244;6.774;2022-09-09T10:30:48;155647.88;;;32.27;34.28
12358;BME280;6243;51.244;6.774;2022-09-09T10:33:21;155246.38;;;30.70;36.48
12358;BME280;6243;51.244;6.774;2022-09-09T10:35:56;155543.25;;;31.86;34.97
12358;BME280;6243;51.244;6.774;2022-09-09T10:38:28;155299.31;;;30.91;35.87
12358;BME280;6243;51.244;6.774;2022-09-09T10:41:09;155285.06;;;30.85;36.51
12358;BME280;6243;51.244;6.774;2022-09-09T10:46:45;155264.44;;;30.77;36.03
12358;BME280;6243;51.244;6.774;2022-09-09T10:49:23;155631.09;;;32.20;34.71
12358;BME280;6243;51.244;6.774;2022-09-09T10:52:00;155452.94;;;31.50;34.77
12358;BME280;6243;51.244;6.774;2022-09-09T10:54:38;155468.41;;;31.57;35.07
12358;BME280;6243;51.244;6.774;2022-09-09T10:57:11;155638.84;;;32.23;34.17
12358;BME280;6243;51.244;6.774;2022-09-09T10:59:41;155973.56;;;33.53;32.79
12358;BME280;6243;51.244;6.774;2022-09-09T11:02:14;155135.41;;;30.27;36.58
12358;BME280;6243;51.244;6.774;2022-09-09T11:04:44;155218.00;;;30.59;36.20
12358;BME280;6243;51.244;6.774;2022-09-09T11:07:18;155002.56;;;29.75;36.86
12358;BME280;6243;51.244;6.774;2022-09-09T11:09:52;155388.34;;;31.25;35.49
12358;BME280;6243;51.244;6.774;2022-09-09T11:12:19;155459.38;;;31.53;35.04
12358;BME280;6243;51.244;6.774;2022-09-09T11:14:48;155227.00;;;30.62;36.59
12358;BME280;6243;51.244;6.774;2022-09-09T11:17:18;155507.16;;;31.72;34.95
12358;BME280;6243;51.244;6.774;2022-09-09T11:19:46;155730.56;;;32.59;34.13
12358;BME280;6243;51.244;6.774;2022-09-09T11:22:19;155792.59;;;32.83;33.97
12358;BME280;6243;51.244;6.774;2022-09-09T11:24:51;155367.69;;;31.17;37.88
12358;BME280;6243;51.244;6.774;2022-09-09T11:27:21;155309.63;;;30.95;38.92
12358;BME280;6243;51.244;6.774;2022-09-09T11:30:13;155601.41;;;32.08;36.92
12358;BME280;6243;51.244;6.774;2022-09-09T11:36:02;155738.34;;;32.62;35.12
12358;BME280;6243;51.244;6.774;2022-09-09T11:38:39;155384.44;;;31.24;35.84
12358;BME280;6243;51.244;6.774;2022-09-09T11:41:08;155806.78;;;32.88;34.48
12358;BME280;6243;51.244;6.774;2022-09-09T11:43:39;155410.28;;;31.34;35.69
12358;BME280;6243;51.244;6.774;2022-09-09T11:46:06;155551.03;;;31.89;35.81
12358;BME280;6243;51.244;6.774;2022-09-09T11:48:35;155259.28;;;30.75;36.64
12358;BME280;6243;51.244;6.774;2022-09-09T11:51:05;155525.19;;;31.79;35.60
12358;BME280;6243;51.244;6.774;2022-09-09T11:53:33;155238.63;;;30.67;37.78
12358;BME280;6243;51.244;6.774;2022-09-09T11:56:12;155241.22;;;30.68;37.63
12358;BME280;6243;51.244;6.774;2022-09-09T11:58:43;155401.28;;;31.30;35.85
12358;BME280;6243;51.244;6.774;2022-09-09T12:01:15;155607.84;;;32.11;35.07
12358;BME280;6243;51.244;6.774;2022-09-09T12:03:43;155659.50;;;32.31;35.24
12358;BME280;6243;51.244;6.774;2022-09-09T12:06:14;155352.22;;;31.11;37.15
12358;BME280;6243;51.244;6.774;2022-09-09T12:08:43;155414.13;;;31.35;36.37
12358;BME280;6243;51.244;6.774;2022-09-09T12:11:12;155495.50;;;31.67;35.65
12358;BME280;6243;51.244;6.774;2022-09-09T12:13:52;155499.41;;;31.69;35.92
12358;BME280;6243;51.244;6.774;2022-09-09T12:16:28;155696.97;;;32.46;35.10
12358;BME280;6243;51.244;6.774;2022-09-09T12:19:03;155558.78;;;31.92;35.47
12358;BME280;6243;51.244;6.774;2022-09-09T12:21:34;155447.78;;;31.48;36.06
12358;BME280;6243;51.244;6.774;2022-09-09T12:24:07;155684.03;;;32.41;35.07
12358;BME280;6243;51.244;6.774;2022-09-09T12:26:37;155795.16;;;32.84;34.03
12358;BME280;6243;51.244;6.774;2022-09-09T12:29:14;155819.72;;;32.93;34.14
12358;BME280;6243;51.244;6.774;2022-09-09T12:31:46;155752.56;;;32.67;34.51
12358;BME280;6243;51.244;6.774;2022-09-09T12:34:15;155387.06;;;31.25;36.45
12358;BME280;6243;51.244;6.774;2022-09-09T12:36:43;155383.19;;;31.23;35.83
12358;BME280;6243;51.244;6.774;2022-09-09T12:39:16;155835.19;;;33.00;34.09
12358;BME280;6243;51.244;6.774;2022-09-09T12:41:51;155687.94;;;32.42;35.15
12358;BME280;6243;51.244;6.774;2022-09-09T12:44:17;155641.47;;;32.24;35.04
12358;BME280;6243;51.244;6.774;2022-09-09T12:46:44;155757.72;;;32.69;34.49
12358;BME280;6243;51.244;6.774;2022-09-09T12:49:26;155753.81;;;32.68;35.10
12358;BME280;6243;51.244;6.774;2022-09-09T12:51:52;155853.34;;;33.07;34.32
12358;BME280;6243;51.244;6.774;2022-09-09T12:54:20;155889.50;;;33.21;34.41
12358;BME280;6243;51.244;6.774;2022-09-09T12:56:47;156040.75;;;33.80;33.95
12358;BME280;6243;51.244;6.774;2022-09-09T12:59:23;155881.78;;;33.18;35.52
12358;BME280;6243;51.244;6.774;2022-09-09T13:01:55;156052.38;;;33.84;35.18
12358;BME280;6243;51.244;6.774;2022-09-09T13:04:21;155910.22;;;33.29;36.27
12358;BME280;6243;51.244;6.774;2022-09-09T13:06:47;155986.50;;;33.58;35.95
12358;BME280;6243;51.244;6.774;2022-09-09T13:09:12;155930.88;;;33.37;36.52
12358;BME280;6243;51.244;6.774;2022-09-09T13:11:41;156045.91;;;33.82;36.28
12358;BME280;6243;51.244;6.774;2022-09-09T13:14:14;156270.97;;;34.69;35.07
12358;BME280;6243;51.244;6.774;2022-09-09T13:16:41;156274.81;;;34.71;34.66